sensor_id;sensor_type;location;lat;lon;timestamp;P1;durP1;ratioP1;P2;durP2;ratioP2
17259;SDS011;8746;49.230;9.220;2024-03-17T00:02:16;6.00;;;5.40;;
17259;SDS011;8746;49.230;9.220;2024-03-17T00:04:42;5.73;;;5.23;;
17259;SDS011;8746;49.230;9.220;2024-03-17T00:07:07;6.97;;;5.60;;
17259;SDS011;8746;49.230;9.220;2024-03-17T00:09:33;5.80;;;5.27;;
17259;SDS011;8746;49.230;9.220;2024-03-17T00:11:58;7.33;;;5.37;;
17259;SDS011;8746;49.230;9.220;2024-03-17T00:14:24;5.57;;;4.97;;
17259;SDS011;8746;49.230;9.220;2024-03-17T00:16:52;6.13;;;5.30;;
17259;SDS011;8746;49.230;9.220;2024-03-17T00:19:17;6.10;;;5.00;;
17259;SDS011;8746;49.230;9.220;2024-03-17T00:21:43;5.40;;;4.90;;
17259;SDS011;8746;49.230;9.220;2024-03-17T00:24:09;5.67;;;5.10;;
17259;SDS011;8746;49.230;9.220;2024-03-17T00:26:34;5.77;;;4.87;;
17259;SDS011;8746;49.230;9.220;2024-03-17T00:29:00;5.13;;;4.67;;
17259;SDS011;8746;49.230;9.220;2024-03-17T00:31:25;5.80;;;4.77;;
17259;SDS011;8746;49.230;9.220;2024-03-17T00:33:54;7.70;;;5.33;;
17259;SDS011;8746;49.230;9.220;2024-03-17T00:36:19;5.57;;;5.00;;
17259;SDS011;8746;49.230;9.220;2024-03-17T00:38:45;5.40;;;4.90;;
17259;SDS011;8746;49.230;9.220;2024-03-17T00:41:10;8.47;;;5.10;;
17259;SDS011;8746;49.230;9.220;2024-03-17T00:43:36;6.87;;;5.27;;
17259;SDS011;8746;49.230;9.220;2024-03-17T00:46:02;5.37;;;4.87;;
17259;SDS011;8746;49.230;9.220;2024-03-17T00:48:28;5.77;;;5.17;;
17259;SDS011;8746;49.230;9.220;2024-03-17T00:50:56;5.77;;;5.13;;
17259;SDS011;8746;49.230;9.220;2024-03-17T00:53:23;7.33;;;5.10;;
17259;SDS011;8746;49.230;9.220;2024-03-17T00:55:52;8.23;;;5.40;;
17259;SDS011;8746;49.230;9.220;2024-03-17T00:58:19;7.10;;;5.37;;
17259;SDS011;8746;49.230;9.220;2024-03-17T01:00:46;6.73;;;5.00;;
17259;SDS011;8746;49.230;9.220;2024-03-17T01:03:12;6.53;;;5.53;;
17259;SDS011;8746;49.230;9.220;2024-03-17T01:05:38;7.57;;;6.33;;
17259;SDS011;8746;49.230;9.220;2024-03-17T01:08:07;6.83;;;6.03;;
17259;SDS011;8746;49.230;9.220;2024-03-17T01:10:36;7.73;;;6.23;;
17259;SDS011;8746;49.230;9.220;2024-03-17T01:13:02;7.30;;;6.60;;
17259;SDS011;8746;49.230;9.220;2024-03-17T01:15:28;8.20;;;6.20;;
17259;SDS011;8746;49.230;9.220;2024-03-17T01:17:53;8.03;;;6.20;;
17259;SDS011;8746;49.230;9.220;2024-03-17T01:20:19;6.23;;;5.63;;
17259;SDS011;8746;49.230;9.220;2024-03-17T01:22:44;6.60;;;5.57;;
17259;SDS011;8746;49.230;9.220;2024-03-17T01:25:09;8.33;;;5.77;;
17259;SDS011;8746;49.230;9.220;2024-03-17T01:27:34;6.30;;;5.70;;
17259;SDS011;8746;49.230;9.220;2024-03-17T01:30:00;7.20;;;5.60;;
17259;SDS011;8746;49.230;9.220;2024-03-17T01:32:25;6.07;;;5.47;;
17259;SDS011;8746;49.230;9.220;2024-03-17T01:34:51;6.57;;;5.33;;
17259;SDS011;8746;49.230;9.220;2024-03-17T01:37:16;9.43;;;5.57;;
17259;SDS011;8746;49.230;9.220;2024-03-17T01:39:42;8.47;;;6.13;;
17259;SDS011;8746;49.230;9.220;2024-03-17T01:42:07;7.73;;;5.40;;
17259;SDS011;8746;49.230;9.220;2024-03-17T01:44:32;8.63;;;5.27;;
17259;SDS011;8746;49.230;9.220;2024-03-17T01:46:58;6.00;;;5.20;;
17259;SDS011;8746;49.230;9.220;2024-03-17T01:49:25;5.13;;;4.67;;
17259;SDS011;8746;49.230;9.220;2024-03-17T01:51:53;6.73;;;5.63;;
17259;SDS011;8746;49.230;9.220;2024-03-17T01:54:19;7.07;;;6.27;;
17259;SDS011;8746;49.230;9.220;2024-03-17T01:56:44;7.40;;;5.60;;
17259;SDS011;8746;49.230;9.220;2024-03-17T01:59:10;6.40;;;5.80;;
17259;SDS011;8746;49.230;9.220;2024-03-17T02:01:38;6.87;;;5.63;;
17259;SDS011;8746;49.230;9.220;2024-03-17T02:04:04;7.70;;;5.70;;
17259;SDS011;8746;49.230;9.220;2024-03-17T02:06:30;7.87;;;6.43;;
17259;SDS011;8746;49.230;9.220;2024-03-17T02:08:56;6.33;;;5.73;;
17259;SDS011;8746;49.230;9.220;2024-03-17T02:11:25;6.00;;;5.30;;
17259;SDS011;8746;49.230;9.220;2024-03-17T02:13:55;5.93;;;5.40;;
17259;SDS011;8746;49.230;9.220;2024-03-17T02:16:24;6.00;;;5.40;;
17259;SDS011;8746;49.230;9.220;2024-03-17T02:18:56;6.37;;;5.50;;
17259;SDS011;8746;49.230;9.220;2024-03-17T02:21:22;5.57;;;5.07;;
17259;SDS011;8746;49.230;9.220;2024-03-17T02:23:48;8.43;;;6.10;;
17259;SDS011;8746;49.230;9.220;2024-03-17T02:26:14;6.50;;;5.83;;
17259;SDS011;8746;49.230;9.220;2024-03-17T02:28:40;6.43;;;5.83;;
17259;SDS011;8746;49.230;9.220;2024-03-17T02:31:07;6.00;;;5.40;;
17259;SDS011;8746;49.230;9.220;2024-03-17T02:33:35;7.00;;;5.80;;
17259;SDS011;8746;49.230;9.220;2024-03-17T02:36:01;6.33;;;5.67;;
17259;SDS011;8746;49.230;9.220;2024-03-17T02:38:28;6.33;;;5.30;;
17259;SDS011;8746;49.230;9.220;2024-03-17T02:41:15;6.50;;;5.90;;
17259;SDS011;8746;49.230;9.220;2024-03-17T02:43:40;7.03;;;5.63;;
17259;SDS011;8746;49.230;9.220;2024-03-17T02:46:06;7.50;;;6.10;;
17259;SDS011;8746;49.230;9.220;2024-03-17T02:48:32;6.20;;;5.43;;
17259;SDS011;8746;49.230;9.220;2024-03-17T02:50:58;6.53;;;5.80;;
17259;SDS011;8746;49.230;9.220;2024-03-17T02:53:23;6.23;;;5.63;;
17259;SDS011;8746;49.230;9.220;2024-03-17T02:55:49;8.50;;;6.10;;
17259;SDS011;8746;49.230;9.220;2024-03-17T02:58:14;6.77;;;5.60;;
17259;SDS011;8746;49.230;9.220;2024-03-17T03:00:41;7.37;;;6.50;;
17259;SDS011;8746;49.230;9.220;2024-03-17T03:03:06;5.83;;;5.33;;
17259;SDS011;8746;49.230;9.220;2024-03-17T03:05:31;6.97;;;6.20;;
17259;SDS011;8746;49.230;9.220;2024-03-17T03:07:56;7.83;;;5.90;;
17259;SDS011;8746;49.230;9.220;2024-03-17T03:10:22;5.93;;;5.30;;
17259;SDS011;8746;49.230;9.220;2024-03-17T03:12:48;6.53;;;5.90;;
17259;SDS011;8746;49.230;9.220;2024-03-17T03:15:13;7.07;;;6.03;;
17259;SDS011;8746;49.230;9.220;2024-03-17T03:17:38;7.13;;;6.43;;
17259;SDS011;8746;49.230;9.220;2024-03-17T03:20:04;7.43;;;6.10;;
17259;SDS011;8746;49.230;9.220;2024-03-17T03:22:30;7.93;;;6.60;;
17259;SDS011;8746;49.230;9.220;2024-03-17T03:24:56;6.70;;;5.87;;
17259;SDS011;8746;49.230;9.220;2024-03-17T03:27:21;7.87;;;6.10;;
17259;SDS011;8746;49.230;9.220;2024-03-17T03:29:47;6.37;;;5.77;;
17259;SDS011;8746;49.230;9.220;2024-03-17T03:32:12;6.23;;;5.73;;
17259;SDS011;8746;49.230;9.220;2024-03-17T03:34:38;6.70;;;6.10;;
17259;SDS011;8746;49.230;9.220;2024-03-17T03:37:04;7.87;;;5.93;;
17259;SDS011;8746;49.230;9.220;2024-03-17T03:39:32;8.10;;;6.00;;
17259;SDS011;8746;49.230;9.220;2024-03-17T03:41:57;6.67;;;6.00;;
17259;SDS011;8746;49.230;9.220;2024-03-17T03:44:23;7.13;;;6.40;;
17259;SDS011;8746;49.230;9.220;2024-03-17T03:46:48;6.93;;;5.90;;
17259;SDS011;8746;49.230;9.220;2024-03-17T03:49:13;6.77;;;6.07;;
17259;SDS011;8746;49.230;9.220;2024-03-17T03:51:39;5.93;;;5.37;;
17259;SDS011;8746;49.230;9.220;2024-03-17T03:54:04;7.57;;;5.60;;
17259;SDS011;8746;49.230;9.220;2024-03-17T03:56:31;6.10;;;5.50;;
17259;SDS011;8746;49.230;9.220;2024-03-17T03:58:58;6.47;;;5.13;;
17259;SDS011;8746;49.230;9.220;2024-03-17T04:01:23;6.20;;;5.57;;
17259;SDS011;8746;49.230;9.220;2024-03-17T04:03:48;6.17;;;5.57;;
17259;SDS011;8746;49.230;9.220;2024-03-17T04:06:14;7.97;;;5.60;;
17259;SDS011;8746;49.230;9.220;2024-03-17T04:08:41;8.33;;;5.27;;
17259;SDS011;8746;49.230;9.220;2024-03-17T04:11:07;7.67;;;5.60;;
17259;SDS011;8746;49.230;9.220;2024-03-17T04:13:32;6.53;;;5.10;;
17259;SDS011;8746;49.230;9.220;2024-03-17T04:15:59;8.40;;;5.20;;
17259;SDS011;8746;49.230;9.220;2024-03-17T04:18:25;6.33;;;5.00;;
17259;SDS011;8746;49.230;9.220;2024-03-17T04:20:55;5.30;;;4.80;;
17259;SDS011;8746;49.230;9.220;2024-03-17T04:23:22;5.20;;;4.70;;
17259;SDS011;8746;49.230;9.220;2024-03-17T04:25:48;5.23;;;4.73;;
17259;SDS011;8746;49.230;9.220;2024-03-17T04:28:15;5.57;;;5.07;;
17259;SDS011;8746;49.230;9.220;2024-03-17T04:30:41;5.53;;;5.03;;
17259;SDS011;8746;49.230;9.220;2024-03-17T04:33:07;5.70;;;4.90;;
17259;SDS011;8746;49.230;9.220;2024-03-17T04:35:37;5.77;;;5.17;;
17259;SDS011;8746;49.230;9.220;2024-03-17T04:38:05;6.00;;;4.40;;
17259;SDS011;8746;49.230;9.220;2024-03-17T04:40:34;5.37;;;4.73;;
17259;SDS011;8746;49.230;9.220;2024-03-17T04:43:00;6.97;;;5.23;;
17259;SDS011;8746;49.230;9.220;2024-03-17T04:45:25;6.57;;;4.90;;
17259;SDS011;8746;49.230;9.220;2024-03-17T04:47:51;5.43;;;4.93;;
17259;SDS011;8746;49.230;9.220;2024-03-17T04:50:16;5.17;;;4.67;;
17259;SDS011;8746;49.230;9.220;2024-03-17T04:52:42;6.63;;;4.77;;
17259;SDS011;8746;49.230;9.220;2024-03-17T04:55:07;5.57;;;4.87;;
17259;SDS011;8746;49.230;9.220;2024-03-17T04:57:33;5.20;;;4.67;;
17259;SDS011;8746;49.230;9.220;2024-03-17T04:59:58;4.70;;;4.30;;
17259;SDS011;8746;49.230;9.220;2024-03-17T05:02:23;5.23;;;4.73;;
17259;SDS011;8746;49.230;9.220;2024-03-17T05:04:50;5.57;;;4.97;;
17259;SDS011;8746;49.230;9.220;2024-03-17T05:07:15;5.07;;;4.60;;
17259;SDS011;8746;49.230;9.220;2024-03-17T05:09:40;5.53;;;4.87;;
17259;SDS011;8746;49.230;9.220;2024-03-17T05:12:07;8.33;;;4.97;;
17259;SDS011;8746;49.230;9.220;2024-03-17T05:14:32;5.30;;;4.73;;
17259;SDS011;8746;49.230;9.220;2024-03-17T05:16:57;5.13;;;4.73;;
17259;SDS011;8746;49.230;9.220;2024-03-17T05:19:23;7.10;;;5.40;;
17259;SDS011;8746;49.230;9.220;2024-03-17T05:21:48;5.70;;;5.13;;
17259;SDS011;8746;49.230;9.220;2024-03-17T05:24:13;6.47;;;5.50;;
17259;SDS011;8746;49.230;9.220;2024-03-17T05:26:39;6.67;;;5.30;;
17259;SDS011;8746;49.230;9.220;2024-03-17T05:29:05;6.83;;;5.60;;
17259;SDS011;8746;49.230;9.220;2024-03-17T05:31:30;6.80;;;5.80;;
17259;SDS011;8746;49.230;9.220;2024-03-17T05:33:56;7.17;;;6.40;;
17259;SDS011;8746;49.230;9.220;2024-03-17T05:36:22;7.07;;;6.37;;
17259;SDS011;8746;49.230;9.220;2024-03-17T05:38:47;6.23;;;5.63;;
17259;SDS011;8746;49.230;9.220;2024-03-17T05:41:13;6.57;;;5.97;;
17259;SDS011;8746;49.230;9.220;2024-03-17T05:43:39;7.57;;;6.00;;
17259;SDS011;8746;49.230;9.220;2024-03-17T05:46:05;5.67;;;5.17;;
17259;SDS011;8746;49.230;9.220;2024-03-17T05:48:32;7.07;;;5.93;;
17259;SDS011;8746;49.230;9.220;2024-03-17T05:51:00;7.17;;;6.47;;
17259;SDS011;8746;49.230;9.220;2024-03-17T05:53:27;6.63;;;5.93;;
17259;SDS011;8746;49.230;9.220;2024-03-17T05:55:53;8.07;;;5.90;;
17259;SDS011;8746;49.230;9.220;2024-03-17T05:58:18;8.33;;;7.53;;
17259;SDS011;8746;49.230;9.220;2024-03-17T06:00:43;7.83;;;7.13;;
17259;SDS011;8746;49.230;9.220;2024-03-17T06:03:09;7.70;;;7.00;;
17259;SDS011;8746;49.230;9.220;2024-03-17T06:05:36;8.70;;;6.50;;
17259;SDS011;8746;49.230;9.220;2024-03-17T06:08:03;7.07;;;6.30;;
17259;SDS011;8746;49.230;9.220;2024-03-17T06:10:30;7.43;;;6.73;;
17259;SDS011;8746;49.230;9.220;2024-03-17T06:12:57;9.60;;;8.60;;
17259;SDS011;8746;49.230;9.220;2024-03-17T06:15:22;7.70;;;6.90;;
17259;SDS011;8746;49.230;9.220;2024-03-17T06:17:49;7.70;;;6.90;;
17259;SDS011;8746;49.230;9.220;2024-03-17T06:20:16;7.33;;;5.73;;
17259;SDS011;8746;49.230;9.220;2024-03-17T06:22:42;10.53;;;6.10;;
17259;SDS011;8746;49.230;9.220;2024-03-17T06:25:07;6.53;;;5.93;;
17259;SDS011;8746;49.230;9.220;2024-03-17T06:27:33;6.43;;;5.83;;
17259;SDS011;8746;49.230;9.220;2024-03-17T06:29:59;7.13;;;5.37;;
17259;SDS011;8746;49.230;9.220;2024-03-17T06:32:28;6.27;;;5.67;;
17259;SDS011;8746;49.230;9.220;2024-03-17T06:34:55;6.53;;;4.87;;
17259;SDS011;8746;49.230;9.220;2024-03-17T06:37:21;6.07;;;4.57;;
17259;SDS011;8746;49.230;9.220;2024-03-17T06:39:47;5.60;;;4.87;;
17259;SDS011;8746;49.230;9.220;2024-03-17T06:42:12;6.23;;;5.40;;
17259;SDS011;8746;49.230;9.220;2024-03-17T06:44:37;7.03;;;5.57;;
17259;SDS011;8746;49.230;9.220;2024-03-17T06:47:04;5.77;;;5.23;;
17259;SDS011;8746;49.230;9.220;2024-03-17T06:49:30;5.80;;;5.30;;
17259;SDS011;8746;49.230;9.220;2024-03-17T06:51:55;6.80;;;5.80;;
17259;SDS011;8746;49.230;9.220;2024-03-17T06:54:21;7.43;;;5.90;;
17259;SDS011;8746;49.230;9.220;2024-03-17T06:56:47;6.33;;;5.30;;
17259;SDS011;8746;49.230;9.220;2024-03-17T06:59:12;6.03;;;5.43;;
17259;SDS011;8746;49.230;9.220;2024-03-17T07:01:37;8.13;;;5.47;;
17259;SDS011;8746;49.230;9.220;2024-03-17T07:04:03;6.00;;;5.40;;
17259;SDS011;8746;49.230;9.220;2024-03-17T07:06:28;7.07;;;5.53;;
17259;SDS011;8746;49.230;9.220;2024-03-17T07:08:54;6.30;;;5.70;;
17259;SDS011;8746;49.230;9.220;2024-03-17T07:11:20;6.23;;;5.63;;
17259;SDS011;8746;49.230;9.220;2024-03-17T07:13:48;6.80;;;5.10;;
17259;SDS011;8746;49.230;9.220;2024-03-17T07:16:16;7.10;;;5.73;;
17259;SDS011;8746;49.230;9.220;2024-03-17T07:18:41;6.30;;;5.70;;
17259;SDS011;8746;49.230;9.220;2024-03-17T07:21:08;6.73;;;5.40;;
17259;SDS011;8746;49.230;9.220;2024-03-17T07:23:35;5.97;;;5.47;;
17259;SDS011;8746;49.230;9.220;2024-03-17T07:26:01;6.70;;;6.00;;
17259;SDS011;8746;49.230;9.220;2024-03-17T07:28:27;7.43;;;5.70;;
17259;SDS011;8746;49.230;9.220;2024-03-17T07:30:53;5.77;;;5.27;;
17259;SDS011;8746;49.230;9.220;2024-03-17T07:33:21;6.83;;;5.83;;
17259;SDS011;8746;49.230;9.220;2024-03-17T07:38:16;6.07;;;5.57;;
17259;SDS011;8746;49.230;9.220;2024-03-17T07:40:43;6.20;;;5.60;;
17259;SDS011;8746;49.230;9.220;2024-03-17T07:43:09;6.77;;;6.10;;
17259;SDS011;8746;49.230;9.220;2024-03-17T07:45:34;6.80;;;5.73;;
17259;SDS011;8746;49.230;9.220;2024-03-17T07:48:00;6.17;;;5.57;;
17259;SDS011;8746;49.230;9.220;2024-03-17T07:50:25;7.07;;;6.00;;
17259;SDS011;8746;49.230;9.220;2024-03-17T07:52:51;6.93;;;6.23;;
17259;SDS011;8746;49.230;9.220;2024-03-17T07:55:17;6.70;;;6.07;;
17259;SDS011;8746;49.230;9.220;2024-03-17T07:57:42;7.87;;;6.30;;
17259;SDS011;8746;49.230;9.220;2024-03-17T08:00:08;7.33;;;6.63;;
17259;SDS011;8746;49.230;9.220;2024-03-17T08:02:49;7.50;;;6.80;;
17259;SDS011;8746;49.230;9.220;2024-03-17T08:05:14;6.87;;;6.17;;
17259;SDS011;8746;49.230;9.220;2024-03-17T08:07:40;7.00;;;6.30;;
17259;SDS011;8746;49.230;9.220;2024-03-17T08:10:07;7.73;;;7.00;;
17259;SDS011;8746;49.230;9.220;2024-03-17T08:12:33;7.07;;;6.37;;
17259;SDS011;8746;49.230;9.220;2024-03-17T08:14:58;6.90;;;6.20;;
17259;SDS011;8746;49.230;9.220;2024-03-17T08:17:24;7.60;;;6.80;;
17259;SDS011;8746;49.230;9.220;2024-03-17T08:19:50;7.97;;;7.17;;
17259;SDS011;8746;49.230;9.220;2024-03-17T08:22:15;7.23;;;6.53;;
17259;SDS011;8746;49.230;9.220;2024-03-17T08:24:40;7.80;;;7.10;;
17259;SDS011;8746;49.230;9.220;2024-03-17T08:27:06;8.07;;;7.27;;
17259;SDS011;8746;49.230;9.220;2024-03-17T08:29:31;8.53;;;6.90;;
17259;SDS011;8746;49.230;9.220;2024-03-17T08:31:58;9.30;;;6.47;;
17259;SDS011;8746;49.230;9.220;2024-03-17T08:34:23;7.57;;;6.73;;
17259;SDS011;8746;49.230;9.220;2024-03-17T08:36:49;7.53;;;6.83;;
17259;SDS011;8746;49.230;9.220;2024-03-17T08:39:14;8.43;;;6.30;;
17259;SDS011;8746;49.230;9.220;2024-03-17T08:41:40;7.10;;;6.40;;
17259;SDS011;8746;49.230;9.220;2024-03-17T08:44:05;7.60;;;6.17;;
17259;SDS011;8746;49.230;9.220;2024-03-17T08:46:31;8.03;;;6.47;;
17259;SDS011;8746;49.230;9.220;2024-03-17T08:48:57;8.43;;;7.27;;
17259;SDS011;8746;49.230;9.220;2024-03-17T08:51:23;7.00;;;6.30;;
17259;SDS011;8746;49.230;9.220;2024-03-17T08:53:48;7.43;;;6.63;;
17259;SDS011;8746;49.230;9.220;2024-03-17T08:56:14;7.37;;;6.50;;
17259;SDS011;8746;49.230;9.220;2024-03-17T08:58:39;8.60;;;6.60;;
17259;SDS011;8746;49.230;9.220;2024-03-17T09:01:05;7.63;;;6.80;;
17259;SDS011;8746;49.230;9.220;2024-03-17T09:03:32;6.97;;;6.33;;
17259;SDS011;8746;49.230;9.220;2024-03-17T09:05:57;7.60;;;6.90;;
17259;SDS011;8746;49.230;9.220;2024-03-17T09:08:23;8.50;;;6.63;;
17259;SDS011;8746;49.230;9.220;2024-03-17T09:10:50;6.90;;;6.20;;
17259;SDS011;8746;49.230;9.220;2024-03-17T09:13:20;7.57;;;6.77;;
17259;SDS011;8746;49.230;9.220;2024-03-17T09:16:01;7.43;;;6.63;;
17259;SDS011;8746;49.230;9.220;2024-03-17T09:18:26;7.97;;;7.17;;
17259;SDS011;8746;49.230;9.220;2024-03-17T09:20:59;7.33;;;6.13;;
17259;SDS011;8746;49.230;9.220;2024-03-17T09:23:25;6.93;;;5.93;;
17259;SDS011;8746;49.230;9.220;2024-03-17T09:25:54;6.63;;;6.03;;
17259;SDS011;8746;49.230;9.220;2024-03-17T09:28:28;7.40;;;6.33;;
17259;SDS011;8746;49.230;9.220;2024-03-17T09:30:54;7.47;;;6.67;;
17259;SDS011;8746;49.230;9.220;2024-03-17T09:33:21;7.00;;;6.30;;
17259;SDS011;8746;49.230;9.220;2024-03-17T09:35:57;7.33;;;6.63;;
17259;SDS011;8746;49.230;9.220;2024-03-17T09:38:31;6.53;;;5.93;;
17259;SDS011;8746;49.230;9.220;2024-03-17T09:40:57;7.97;;;6.37;;
17259;SDS011;8746;49.230;9.220;2024-03-17T09:43:23;7.73;;;6.00;;
17259;SDS011;8746;49.230;9.220;2024-03-17T09:45:50;8.27;;;6.20;;
17259;SDS011;8746;49.230;9.220;2024-03-17T09:48:19;6.53;;;5.93;;
17259;SDS011;8746;49.230;9.220;2024-03-17T09:50:47;6.60;;;5.90;;
17259;SDS011;8746;49.230;9.220;2024-03-17T09:53:16;7.10;;;6.07;;
17259;SDS011;8746;49.230;9.220;2024-03-17T09:55:43;6.20;;;5.60;;
17259;SDS011;8746;49.230;9.220;2024-03-17T09:58:15;6.27;;;5.67;;
17259;SDS011;8746;49.230;9.220;2024-03-17T10:00:42;6.40;;;5.77;;
17259;SDS011;8746;49.230;9.220;2024-03-17T10:03:08;7.27;;;6.10;;
17259;SDS011;8746;49.230;9.220;2024-03-17T10:05:33;6.43;;;5.83;;
17259;SDS011;8746;49.230;9.220;2024-03-17T10:07:59;6.10;;;5.50;;
17259;SDS011;8746;49.230;9.220;2024-03-17T10:10:24;6.07;;;5.57;;
17259;SDS011;8746;49.230;9.220;2024-03-17T10:12:50;6.63;;;5.87;;
17259;SDS011;8746;49.230;9.220;2024-03-17T10:15:16;6.43;;;5.63;;
17259;SDS011;8746;49.230;9.220;2024-03-17T10:17:43;7.07;;;5.90;;
17259;SDS011;8746;49.230;9.220;2024-03-17T10:20:15;6.73;;;5.83;;
17259;SDS011;8746;49.230;9.220;2024-03-17T10:25:26;6.10;;;5.57;;
17259;SDS011;8746;49.230;9.220;2024-03-17T10:27:52;7.07;;;5.87;;
17259;SDS011;8746;49.230;9.220;2024-03-17T10:30:18;6.13;;;5.57;;
17259;SDS011;8746;49.230;9.220;2024-03-17T10:32:53;6.17;;;5.60;;
17259;SDS011;8746;49.230;9.220;2024-03-17T10:37:56;6.10;;;5.47;;
17259;SDS011;8746;49.230;9.220;2024-03-17T10:40:23;5.87;;;5.27;;
17259;SDS011;8746;49.230;9.220;2024-03-17T10:42:49;6.20;;;5.13;;
17259;SDS011;8746;49.230;9.220;2024-03-17T10:45:14;5.67;;;5.00;;
17259;SDS011;8746;49.230;9.220;2024-03-17T10:47:40;6.87;;;5.40;;
17259;SDS011;8746;49.230;9.220;2024-03-17T10:50:14;4.83;;;4.43;;
17259;SDS011;8746;49.230;9.220;2024-03-17T10:52:50;5.20;;;4.30;;
17259;SDS011;8746;49.230;9.220;2024-03-17T10:55:22;4.27;;;3.80;;
17259;SDS011;8746;49.230;9.220;2024-03-17T10:57:50;4.30;;;3.90;;
17259;SDS011;8746;49.230;9.220;2024-03-17T11:00:20;4.57;;;3.90;;
17259;SDS011;8746;49.230;9.220;2024-03-17T11:02:47;4.47;;;4.10;;
17259;SDS011;8746;49.230;9.220;2024-03-17T11:05:14;4.45;;;4.05;;
17259;SDS011;8746;49.230;9.220;2024-03-17T11:07:42;4.57;;;4.17;;
17259;SDS011;8746;49.230;9.220;2024-03-17T11:10:14;4.65;;;4.25;;
17259;SDS011;8746;49.230;9.220;2024-03-17T11:12:42;4.35;;;3.95;;
17259;SDS011;8746;49.230;9.220;2024-03-17T11:17:51;4.37;;;3.97;;
17259;SDS011;8746;49.230;9.220;2024-03-17T11:20:19;4.57;;;4.18;;
17259;SDS011;8746;49.230;9.220;2024-03-17T11:22:51;8.48;;;5.63;;
17259;SDS011;8746;49.230;9.220;2024-03-17T11:27:55;12.07;;;10.88;;
17259;SDS011;8746;49.230;9.220;2024-03-17T11:31:01;5.93;;;4.60;;
17259;SDS011;8746;49.230;9.220;2024-03-17T11:41:41;5.95;;;4.70;;
17259;SDS011;8746;49.230;9.220;2024-03-17T11:51:59;3.90;;;3.50;;
17259;SDS011;8746;49.230;9.220;2024-03-17T11:54:30;3.67;;;3.22;;
17259;SDS011;8746;49.230;9.220;2024-03-17T11:57:04;4.95;;;4.45;;
17259;SDS011;8746;49.230;9.220;2024-03-17T11:59:34;4.50;;;4.10;;
17259;SDS011;8746;49.230;9.220;2024-03-17T12:01:59;4.43;;;3.92;;
17259;SDS011;8746;49.230;9.220;2024-03-17T12:04:27;4.53;;;3.88;;
17259;SDS011;8746;49.230;9.220;2024-03-17T12:06:54;6.25;;;4.32;;
17259;SDS011;8746;49.230;9.220;2024-03-17T12:09:40;4.38;;;3.97;;
17259;SDS011;8746;49.230;9.220;2024-03-17T12:12:11;4.22;;;3.83;;
17259;SDS011;8746;49.230;9.220;2024-03-17T12:14:41;4.05;;;3.65;;
17259;SDS011;8746;49.230;9.220;2024-03-17T12:17:07;5.68;;;4.03;;
17259;SDS011;8746;49.230;9.220;2024-03-17T12:19:36;4.88;;;3.78;;
17259;SDS011;8746;49.230;9.220;2024-03-17T12:22:06;4.57;;;4.18;;
17259;SDS011;8746;49.230;9.220;2024-03-17T12:24:34;5.90;;;4.28;;
17259;SDS011;8746;49.230;9.220;2024-03-17T12:27:01;6.28;;;4.85;;
17259;SDS011;8746;49.230;9.220;2024-03-17T12:29:37;3.90;;;3.60;;
17259;SDS011;8746;49.230;9.220;2024-03-17T12:32:18;9.75;;;7.13;;
17259;SDS011;8746;49.230;9.220;2024-03-17T12:34:52;6.70;;;4.90;;
17259;SDS011;8746;49.230;9.220;2024-03-17T12:37:19;4.10;;;3.72;;
17259;SDS011;8746;49.230;9.220;2024-03-17T12:39:46;5.82;;;4.45;;
17259;SDS011;8746;49.230;9.220;2024-03-17T12:42:15;5.93;;;4.80;;
17259;SDS011;8746;49.230;9.220;2024-03-17T12:44:58;4.13;;;3.70;;
17259;SDS011;8746;49.230;9.220;2024-03-17T12:47:25;3.83;;;3.42;;
17259;SDS011;8746;49.230;9.220;2024-03-17T12:49:52;5.50;;;4.75;;
17259;SDS011;8746;49.230;9.220;2024-03-17T12:57:46;12.18;;;9.20;;
17259;SDS011;8746;49.230;9.220;2024-03-17T13:00:32;5.13;;;3.30;;
17259;SDS011;8746;49.230;9.220;2024-03-17T13:02:58;19.23;;;14.18;;
17259;SDS011;8746;49.230;9.220;2024-03-17T13:05:24;6.72;;;5.30;;
17259;SDS011;8746;49.230;9.220;2024-03-17T13:07:49;11.65;;;7.88;;
17259;SDS011;8746;49.230;9.220;2024-03-17T13:10:16;5.20;;;4.70;;
17259;SDS011;8746;49.230;9.220;2024-03-17T13:12:42;3.75;;;3.45;;
17259;SDS011;8746;49.230;9.220;2024-03-17T13:15:09;4.82;;;4.22;;
17259;SDS011;8746;49.230;9.220;2024-03-17T13:17:38;3.33;;;3.03;;
17259;SDS011;8746;49.230;9.220;2024-03-17T13:20:04;3.80;;;3.50;;
17259;SDS011;8746;49.230;9.220;2024-03-17T13:22:33;4.23;;;3.63;;
17259;SDS011;8746;49.230;9.220;2024-03-17T13:25:00;6.05;;;3.67;;
17259;SDS011;8746;49.230;9.220;2024-03-17T13:27:25;4.45;;;3.38;;
17259;SDS011;8746;49.230;9.220;2024-03-17T13:29:50;3.65;;;3.15;;
17259;SDS011;8746;49.230;9.220;2024-03-17T13:32:16;4.03;;;3.60;;
17259;SDS011;8746;49.230;9.220;2024-03-17T13:34:44;5.25;;;4.40;;
17259;SDS011;8746;49.230;9.220;2024-03-17T13:37:09;4.00;;;3.70;;
17259;SDS011;8746;49.230;9.220;2024-03-17T13:39:35;4.03;;;3.63;;
17259;SDS011;8746;49.230;9.220;2024-03-17T13:42:00;3.50;;;3.20;;
17259;SDS011;8746;49.230;9.220;2024-03-17T13:44:28;5.65;;;3.40;;
17259;SDS011;8746;49.230;9.220;2024-03-17T13:46:57;4.05;;;3.65;;
17259;SDS011;8746;49.230;9.220;2024-03-17T13:49:29;4.03;;;3.63;;
17259;SDS011;8746;49.230;9.220;2024-03-17T13:51:55;4.53;;;3.80;;
17259;SDS011;8746;49.230;9.220;2024-03-17T13:54:20;5.17;;;3.60;;
17259;SDS011;8746;49.230;9.220;2024-03-17T13:56:48;4.38;;;3.40;;
17259;SDS011;8746;49.230;9.220;2024-03-17T13:59:17;4.00;;;3.70;;
17259;SDS011;8746;49.230;9.220;2024-03-17T14:01:43;6.07;;;3.50;;
17259;SDS011;8746;49.230;9.220;2024-03-17T14:04:15;5.07;;;3.72;;
17259;SDS011;8746;49.230;9.220;2024-03-17T14:06:43;4.18;;;3.50;;
17259;SDS011;8746;49.230;9.220;2024-03-17T14:09:10;4.28;;;3.88;;
17259;SDS011;8746;49.230;9.220;2024-03-17T14:11:37;3.97;;;3.20;;
17259;SDS011;8746;49.230;9.220;2024-03-17T14:14:03;3.83;;;3.53;;
17259;SDS011;8746;49.230;9.220;2024-03-17T14:16:30;3.87;;;3.50;;
17259;SDS011;8746;49.230;9.220;2024-03-17T14:18:58;3.33;;;3.00;;
17259;SDS011;8746;49.230;9.220;2024-03-17T14:21:24;4.57;;;3.33;;
17259;SDS011;8746;49.230;9.220;2024-03-17T14:23:50;4.03;;;3.58;;
17259;SDS011;8746;49.230;9.220;2024-03-17T14:26:16;3.53;;;3.03;;
17259;SDS011;8746;49.230;9.220;2024-03-17T14:28:41;3.70;;;3.40;;
17259;SDS011;8746;49.230;9.220;2024-03-17T14:31:06;4.22;;;3.83;;
17259;SDS011;8746;49.230;9.220;2024-03-17T14:33:32;3.97;;;3.33;;
17259;SDS011;8746;49.230;9.220;2024-03-17T14:35:57;3.90;;;3.47;;
17259;SDS011;8746;49.230;9.220;2024-03-17T14:38:22;4.10;;;3.70;;
17259;SDS011;8746;49.230;9.220;2024-03-17T14:40:50;3.67;;;3.37;;
17259;SDS011;8746;49.230;9.220;2024-03-17T14:43:16;3.63;;;3.27;;
17259;SDS011;8746;49.230;9.220;2024-03-17T14:45:42;3.80;;;3.40;;
17259;SDS011;8746;49.230;9.220;2024-03-17T14:48:07;3.63;;;3.30;;
17259;SDS011;8746;49.230;9.220;2024-03-17T14:50:34;4.07;;;3.40;;
17259;SDS011;8746;49.230;9.220;2024-03-17T14:53:00;3.80;;;3.40;;
17259;SDS011;8746;49.230;9.220;2024-03-17T14:55:25;3.90;;;3.50;;
17259;SDS011;8746;49.230;9.220;2024-03-17T14:57:50;3.20;;;2.90;;
17259;SDS011;8746;49.230;9.220;2024-03-17T15:00:16;3.67;;;3.37;;
17259;SDS011;8746;49.230;9.220;2024-03-17T15:02:44;4.07;;;3.30;;
17259;SDS011;8746;49.230;9.220;2024-03-17T15:05:13;4.27;;;3.63;;
17259;SDS011;8746;49.230;9.220;2024-03-17T15:07:46;3.67;;;3.37;;
17259;SDS011;8746;49.230;9.220;2024-03-17T15:10:13;3.37;;;3.07;;
17259;SDS011;8746;49.230;9.220;2024-03-17T15:12:40;3.67;;;3.30;;
17259;SDS011;8746;49.230;9.220;2024-03-17T15:15:05;3.43;;;3.20;;
17259;SDS011;8746;49.230;9.220;2024-03-17T15:17:33;3.45;;;3.13;;
17259;SDS011;8746;49.230;9.220;2024-03-17T15:20:01;3.70;;;3.23;;
17259;SDS011;8746;49.230;9.220;2024-03-17T15:22:26;3.77;;;3.47;;
17259;SDS011;8746;49.230;9.220;2024-03-17T15:24:52;5.13;;;3.15;;
17259;SDS011;8746;49.230;9.220;2024-03-17T15:27:19;3.25;;;2.90;;
17259;SDS011;8746;49.230;9.220;2024-03-17T15:29:44;3.75;;;3.10;;
17259;SDS011;8746;49.230;9.220;2024-03-17T15:32:10;2.90;;;2.63;;
17259;SDS011;8746;49.230;9.220;2024-03-17T15:34:36;3.10;;;2.80;;